Terminal Aerodrome Forecast
Issued by NWS

Home | Current Version | Previous Version | Text Only | Print | Product List | Glossary On
Versions: 1 2 3 4 5 6 7 8 9 10 11 12 13 14 15 16 17 18 19 20 21 22 23 24 25 26 27 28
000
FTPQ31 PGUM 281259 AAA
TAFGSN
TAF AMD
PGSN 281259Z 2813/2912 05011KT P6SM VCSH SCT018 SCT025 BKN050
      TEMPO 2813/2817 05018G26KT 5SM SHRA SCT014 BKN025 OVC040
     FM282200 06015G25KT P6SM VCSH SCT020 SCT050 BKN080=

USA.gov is the U.S. government's official web portal to all federal, state and local government web resources and services.